CCA975 ZBAA-WSSS
Flight info
| Callsign | CCA975 |
|---|---|
| Flight time | 5h 18m |
| Altitude | 36000 |
| Route | ZBAA/18L K0900S1040 RUSD6J RUSDO W45 IPLEV/K0896S1070 B458 DADGA/K0906S1040 W37 KILUD/K0904S1100 W37 GUSIV/K0920S1070 W37 PEXID/K0920S1100 W37 OMBEB/K0924S1070 R473 NNX/K0920S1100 R473 WYN W18 NLG/K0920S1070 W18 TAMOT/N0495F360 DCT ALLEY V32 EPDOS L642 EPKAL/K0919F360 L642 ESPOB/N0497F360 Q801 ESBUM/N0493F370 Q802 ELALO ELAL1B WSSS/20R |
| Aircraft | B77W/H-SDE2E3FGHIJ3J4J5M1RWXY/LB1D1 |
Departure
| Time | 2026-05-05 00:57 |
|---|---|
| Airport | Beijing Capital International Airport (ZBAA) |
Arrival
| Time | 2026-05-05 06:15 |
|---|---|
| Airport | Singapore Changi Airport (WSSS) |
| Time | Latitude | Longitude | Altitude | Speed | Heading |
|---|---|---|---|---|---|
| 2026-05-05 00:40 | 40.07157 | 116.60496 | 130 ft | 0 kts | 83° |
| 2026-05-05 00:43 | 40.07156 | 116.60484 | 125 ft | 4 kts | 83° |
| 2026-05-05 00:43 | 40.07153 | 116.60449 | 129 ft | 4 kts | 83° |
| 2026-05-05 00:43 | 40.07150 | 116.60420 | 123 ft | 4 kts | 75° |
| 2026-05-05 00:44 | 40.07139 | 116.60391 | 123 ft | 4 kts | 32° |
| 2026-05-05 00:44 | 40.07115 | 116.60383 | 124 ft | 4 kts | 353° |
| 2026-05-05 00:44 | 40.07090 | 116.60389 | 125 ft | 2 kts | 353° |
| 2026-05-05 00:44 | 40.07088 | 116.60389 | 125 ft | 0 kts | 353° |
| 2026-05-05 00:46 | 40.07122 | 116.60384 | 126 ft | 10 kts | 353° |
| 2026-05-05 00:46 | 40.07195 | 116.60373 | 126 ft | 11 kts | 353° |
| 2026-05-05 00:47 | 40.07246 | 116.60314 | 126 ft | 11 kts | 281° |
| 2026-05-05 00:47 | 40.07243 | 116.60215 | 126 ft | 12 kts | 264° |
| 2026-05-05 00:47 | 40.07234 | 116.60104 | 128 ft | 12 kts | 264° |
| 2026-05-05 00:47 | 40.07251 | 116.60002 | 126 ft | 12 kts | 320° |
| 2026-05-05 00:48 | 40.07333 | 116.59971 | 126 ft | 12 kts | 351° |
| 2026-05-05 00:48 | 40.07424 | 116.59957 | 126 ft | 17 kts | 353° |
| 2026-05-05 00:48 | 40.07569 | 116.59934 | 124 ft | 22 kts | 353° |
| 2026-05-05 00:48 | 40.07722 | 116.59910 | 126 ft | 22 kts | 353° |
| 2026-05-05 00:49 | 40.07874 | 116.59886 | 125 ft | 22 kts | 353° |
| 2026-05-05 00:49 | 40.08027 | 116.59862 | 126 ft | 22 kts | 353° |
| 2026-05-05 00:49 | 40.08177 | 116.59839 | 126 ft | 22 kts | 353° |
| 2026-05-05 00:49 | 40.08319 | 116.59817 | 126 ft | 17 kts | 353° |
| 2026-05-05 00:50 | 40.08439 | 116.59797 | 125 ft | 17 kts | 353° |
| 2026-05-05 00:50 | 40.08544 | 116.59781 | 126 ft | 14 kts | 354° |
| 2026-05-05 00:50 | 40.08628 | 116.59768 | 126 ft | 11 kts | 353° |
| 2026-05-05 00:50 | 40.08697 | 116.59757 | 126 ft | 10 kts | 353° |
| 2026-05-05 00:51 | 40.08766 | 116.59746 | 125 ft | 10 kts | 353° |
| 2026-05-05 00:51 | 40.08834 | 116.59736 | 124 ft | 10 kts | 353° |
| 2026-05-05 00:51 | 40.08903 | 116.59725 | 126 ft | 10 kts | 353° |
| 2026-05-05 00:51 | 40.08965 | 116.59698 | 124 ft | 10 kts | 315° |
| 2026-05-05 00:52 | 40.08976 | 116.59651 | 127 ft | 0 kts | 272° |
| 2026-05-05 00:55 | 40.08976 | 116.59648 | 129 ft | 2 kts | 269° |
| 2026-05-05 00:55 | 40.08972 | 116.59597 | 128 ft | 7 kts | 258° |
| 2026-05-05 00:55 | 40.08938 | 116.59532 | 125 ft | 13 kts | 223° |
| 2026-05-05 00:56 | 40.08835 | 116.59501 | 125 ft | 16 kts | 173° |
| 2026-05-05 00:56 | 40.08681 | 116.59525 | 126 ft | 42 kts | 173° |
| 2026-05-05 00:56 | 40.08029 | 116.59627 | 126 ft | 146 kts | 173° |
| 2026-05-05 00:56 | 40.06724 | 116.59837 | 418 ft | 214 kts | 173° |
| 2026-05-05 00:57 | 40.05244 | 116.60068 | 1916 ft | 213 kts | 173° |
| 2026-05-05 00:57 | 40.03699 | 116.60302 | 2844 ft | 234 kts | 174° |
| 2026-05-05 00:57 | 40.02033 | 116.60558 | 3470 ft | 249 kts | 174° |
| 2026-05-05 00:57 | 40.00304 | 116.60827 | 4222 ft | 258 kts | 176° |
| 2026-05-05 00:58 | 39.98497 | 116.61106 | 5039 ft | 265 kts | 176° |
| 2026-05-05 00:58 | 39.96657 | 116.61395 | 5952 ft | 267 kts | 176° |
| 2026-05-05 00:58 | 39.94804 | 116.61685 | 6858 ft | 269 kts | 177° |
| 2026-05-05 00:58 | 39.92942 | 116.61975 | 7749 ft | 270 kts | 177° |
| 2026-05-05 00:59 | 39.91068 | 116.62269 | 8635 ft | 272 kts | 177° |
| 2026-05-05 00:59 | 39.89178 | 116.62565 | 9511 ft | 275 kts | 178° |
| 2026-05-05 00:59 | 39.87269 | 116.62863 | 10310 ft | 279 kts | 178° |
| 2026-05-05 00:59 | 39.85307 | 116.63165 | 10700 ft | 300 kts | 177° |
| 2026-05-05 01:00 | 39.83142 | 116.63497 | 10889 ft | 327 kts | 177° |
| 2026-05-05 01:00 | 39.80798 | 116.63853 | 11090 ft | 353 kts | 176° |
| 2026-05-05 01:00 | 39.78310 | 116.64235 | 11651 ft | 366 kts | 176° |
| 2026-05-05 01:00 | 39.75755 | 116.64628 | 12410 ft | 373 kts | 176° |
| 2026-05-05 01:01 | 39.73166 | 116.64989 | 13245 ft | 372 kts | 180° |
| 2026-05-05 01:01 | 39.70603 | 116.64542 | 13840 ft | 376 kts | 202° |
| 2026-05-05 01:01 | 39.68330 | 116.62881 | 14560 ft | 378 kts | 220° |
| 2026-05-05 01:01 | 39.66557 | 116.60360 | 15321 ft | 382 kts | 236° |
| 2026-05-05 01:02 | 39.65360 | 116.57314 | 16027 ft | 388 kts | 252° |
| 2026-05-05 01:02 | 39.64916 | 116.53852 | 16582 ft | 393 kts | 265° |
| 2026-05-05 01:02 | 39.64735 | 116.50277 | 17135 ft | 402 kts | 266° |
| 2026-05-05 01:02 | 39.64546 | 116.46635 | 17902 ft | 407 kts | 266° |
| 2026-05-05 01:03 | 39.64341 | 116.42959 | 18634 ft | 410 kts | 266° |
| 2026-05-05 01:03 | 39.64120 | 116.39260 | 19339 ft | 413 kts | 266° |
| 2026-05-05 01:03 | 39.63885 | 116.35537 | 20050 ft | 416 kts | 266° |
| 2026-05-05 01:03 | 39.63643 | 116.31786 | 20729 ft | 419 kts | 266° |
| 2026-05-05 01:04 | 39.63397 | 116.28055 | 21375 ft | 423 kts | 266° |
| 2026-05-05 01:04 | 39.62889 | 116.20394 | 22673 ft | 430 kts | 266° |
| 2026-05-05 01:04 | 39.62630 | 116.16516 | 23303 ft | 434 kts | 266° |
| 2026-05-05 01:05 | 39.62367 | 116.12603 | 23831 ft | 437 kts | 266° |
| 2026-05-05 01:05 | 39.62101 | 116.08663 | 24370 ft | 440 kts | 266° |
| 2026-05-05 01:05 | 39.61832 | 116.04701 | 24911 ft | 442 kts | 266° |
| 2026-05-05 01:05 | 39.61564 | 116.00771 | 25425 ft | 445 kts | 266° |
| 2026-05-05 01:06 | 39.61290 | 115.96763 | 25920 ft | 448 kts | 266° |
| 2026-05-05 01:06 | 39.61014 | 115.92732 | 26453 ft | 449 kts | 266° |
| 2026-05-05 01:06 | 39.60734 | 115.88694 | 26962 ft | 451 kts | 266° |
| 2026-05-05 01:06 | 39.60582 | 115.84642 | 27251 ft | 452 kts | 275° |
| 2026-05-05 01:07 | 39.61204 | 115.80638 | 27519 ft | 456 kts | 291° |
| 2026-05-05 01:07 | 39.62623 | 115.76972 | 27940 ft | 455 kts | 300° |
| 2026-05-05 01:07 | 39.64215 | 115.73416 | 28378 ft | 457 kts | 300° |
| 2026-05-05 01:07 | 39.65744 | 115.69850 | 28754 ft | 460 kts | 298° |
| 2026-05-05 01:08 | 39.67263 | 115.66187 | 29151 ft | 462 kts | 298° |
| 2026-05-05 01:08 | 39.68776 | 115.62502 | 29564 ft | 463 kts | 298° |
| 2026-05-05 01:08 | 39.70297 | 115.58818 | 29984 ft | 463 kts | 297° |
| 2026-05-05 01:08 | 39.71820 | 115.55143 | 30378 ft | 462 kts | 298° |
| 2026-05-05 01:09 | 39.73323 | 115.51480 | 30789 ft | 457 kts | 296° |
| 2026-05-05 01:09 | 39.74352 | 115.47567 | 30952 ft | 462 kts | 279° |
| 2026-05-05 01:09 | 39.74455 | 115.43389 | 31253 ft | 465 kts | 266° |
| 2026-05-05 01:09 | 39.73884 | 115.39254 | 31669 ft | 466 kts | 255° |
| 2026-05-05 01:10 | 39.72648 | 115.35355 | 31983 ft | 469 kts | 246° |
| 2026-05-05 01:10 | 39.71154 | 115.31633 | 32143 ft | 473 kts | 244° |
| 2026-05-05 01:10 | 39.69590 | 115.27882 | 32539 ft | 471 kts | 244° |
| 2026-05-05 01:10 | 39.68034 | 115.24156 | 32987 ft | 468 kts | 244° |
| 2026-05-05 01:11 | 39.66497 | 115.20428 | 33292 ft | 469 kts | 245° |
| 2026-05-05 01:11 | 39.64976 | 115.16685 | 33588 ft | 469 kts | 245° |
| 2026-05-05 01:11 | 39.63470 | 115.12936 | 33921 ft | 468 kts | 245° |
| 2026-05-05 01:11 | 39.61974 | 115.09195 | 34252 ft | 466 kts | 245° |
| 2026-05-05 01:12 | 39.60485 | 115.05464 | 34564 ft | 465 kts | 245° |
| 2026-05-05 01:12 | 39.59000 | 115.01744 | 34792 ft | 466 kts | 246° |
| 2026-05-05 01:12 | 39.57528 | 114.98062 | 34996 ft | 467 kts | 246° |
| 2026-05-05 01:12 | 39.56033 | 114.94328 | 35238 ft | 466 kts | 246° |
| 2026-05-05 01:13 | 39.54538 | 114.90603 | 35537 ft | 465 kts | 246° |
| 2026-05-05 01:13 | 39.53046 | 114.86889 | 35814 ft | 464 kts | 246° |
| 2026-05-05 01:13 | 39.51555 | 114.83183 | 36086 ft | 463 kts | 246° |
| 2026-05-05 01:13 | 39.50072 | 114.79504 | 36535 ft | 458 kts | 246° |
| 2026-05-05 01:14 | 39.48603 | 114.75863 | 36928 ft | 455 kts | 246° |
| 2026-05-05 01:14 | 39.47136 | 114.72230 | 37078 ft | 457 kts | 246° |
| 2026-05-05 01:14 | 39.44189 | 114.64937 | 37186 ft | 463 kts | 246° |
| 2026-05-05 01:15 | 39.42692 | 114.61243 | 37349 ft | 464 kts | 246° |
| 2026-05-05 01:15 | 39.41197 | 114.57557 | 37513 ft | 464 kts | 246° |
| 2026-05-05 01:15 | 39.39696 | 114.53861 | 37658 ft | 465 kts | 246° |
| 2026-05-05 01:15 | 39.38189 | 114.50157 | 37748 ft | 467 kts | 246° |
| 2026-05-05 01:16 | 39.35121 | 114.42729 | 37787 ft | 471 kts | 241° |
| 2026-05-05 01:16 | 39.33008 | 114.39450 | 37796 ft | 482 kts | 224° |
| 2026-05-05 01:16 | 39.30214 | 114.37089 | 37805 ft | 494 kts | 207° |
| 2026-05-05 01:17 | 39.26909 | 114.35744 | 37817 ft | 504 kts | 193° |
| 2026-05-05 01:17 | 39.23385 | 114.35454 | 37793 ft | 514 kts | 176° |
| 2026-05-05 01:17 | 39.16339 | 114.37440 | 37786 ft | 522 kts | 169° |
| 2026-05-05 01:18 | 39.09214 | 114.39362 | 37809 ft | 525 kts | 171° |
| 2026-05-05 01:18 | 39.02022 | 114.41165 | 37803 ft | 529 kts | 171° |
| 2026-05-05 01:19 | 38.94822 | 114.42986 | 37802 ft | 532 kts | 171° |
| 2026-05-05 01:19 | 38.87535 | 114.44835 | 37795 ft | 535 kts | 171° |
| 2026-05-05 01:20 | 38.80216 | 114.46686 | 37803 ft | 537 kts | 171° |
| 2026-05-05 01:20 | 38.72884 | 114.48542 | 37798 ft | 538 kts | 171° |
| 2026-05-05 01:21 | 38.65586 | 114.50396 | 37790 ft | 538 kts | 171° |
| 2026-05-05 01:21 | 38.58245 | 114.52255 | 37794 ft | 537 kts | 171° |
| 2026-05-05 01:22 | 38.50918 | 114.54120 | 37797 ft | 536 kts | 171° |
| 2026-05-05 01:22 | 38.43613 | 114.55967 | 37863 ft | 533 kts | 171° |
| 2026-05-05 01:23 | 38.36370 | 114.57616 | 37894 ft | 532 kts | 172° |
| 2026-05-05 01:23 | 38.29080 | 114.59204 | 37906 ft | 531 kts | 172° |
| 2026-05-05 01:24 | 38.21805 | 114.60809 | 37887 ft | 531 kts | 172° |
| 2026-05-05 01:24 | 38.14528 | 114.62433 | 37894 ft | 531 kts | 172° |
| 2026-05-05 01:25 | 38.07298 | 114.64048 | 37911 ft | 531 kts | 172° |
| 2026-05-05 01:25 | 38.00015 | 114.65669 | 37886 ft | 532 kts | 172° |
| 2026-05-05 01:26 | 37.92725 | 114.67288 | 37904 ft | 532 kts | 172° |
| 2026-05-05 01:26 | 37.85435 | 114.68902 | 37907 ft | 533 kts | 172° |
| 2026-05-05 01:27 | 37.78130 | 114.70517 | 37886 ft | 533 kts | 172° |
| 2026-05-05 01:27 | 37.70866 | 114.72121 | 37905 ft | 533 kts | 172° |
| 2026-05-05 01:28 | 37.63549 | 114.73732 | 37904 ft | 534 kts | 172° |
| 2026-05-05 01:28 | 37.56226 | 114.75343 | 37909 ft | 534 kts | 172° |
| 2026-05-05 01:29 | 37.48898 | 114.76950 | 37912 ft | 535 kts | 172° |
| 2026-05-05 01:29 | 37.41615 | 114.78534 | 37923 ft | 535 kts | 172° |
| 2026-05-05 01:30 | 37.34279 | 114.80126 | 37924 ft | 535 kts | 172° |
| 2026-05-05 01:30 | 37.26952 | 114.81719 | 37915 ft | 535 kts | 172° |
| 2026-05-05 01:31 | 37.19628 | 114.83404 | 37925 ft | 535 kts | 171° |
| 2026-05-05 01:31 | 37.12360 | 114.85119 | 37926 ft | 535 kts | 171° |
| 2026-05-05 01:32 | 37.05043 | 114.86831 | 37920 ft | 535 kts | 171° |
| 2026-05-05 01:32 | 36.97727 | 114.88526 | 37934 ft | 534 kts | 171° |
| 2026-05-05 01:33 | 36.90420 | 114.90213 | 37934 ft | 534 kts | 171° |
| 2026-05-05 01:33 | 36.83108 | 114.91899 | 37933 ft | 534 kts | 171° |
| 2026-05-05 01:34 | 36.75850 | 114.93570 | 37947 ft | 534 kts | 171° |
| 2026-05-05 01:34 | 36.68547 | 114.95248 | 37946 ft | 533 kts | 171° |
| 2026-05-05 01:35 | 36.61247 | 114.96922 | 37942 ft | 533 kts | 171° |
| 2026-05-05 01:35 | 36.53949 | 114.98593 | 37955 ft | 533 kts | 171° |
| 2026-05-05 01:36 | 36.46711 | 115.00247 | 37956 ft | 533 kts | 171° |
| 2026-05-05 01:36 | 36.39416 | 115.01891 | 37966 ft | 532 kts | 174° |
| 2026-05-05 01:37 | 36.32067 | 115.02492 | 37969 ft | 527 kts | 184° |
| 2026-05-05 01:37 | 36.24779 | 115.01767 | 37975 ft | 525 kts | 188° |
| 2026-05-05 01:38 | 36.17552 | 115.00949 | 37962 ft | 525 kts | 188° |
| 2026-05-05 01:38 | 36.10272 | 115.00175 | 37967 ft | 525 kts | 187° |
| 2026-05-05 01:39 | 36.02988 | 114.99431 | 37975 ft | 525 kts | 187° |
| 2026-05-05 01:39 | 35.95706 | 114.98695 | 37974 ft | 526 kts | 187° |
| 2026-05-05 01:40 | 35.88411 | 114.97957 | 37976 ft | 526 kts | 187° |
| 2026-05-05 01:40 | 35.81163 | 114.97222 | 37983 ft | 526 kts | 187° |
| 2026-05-05 01:41 | 35.73862 | 114.96483 | 37982 ft | 526 kts | 187° |
| 2026-05-05 01:41 | 35.66558 | 114.95745 | 37987 ft | 526 kts | 187° |
| 2026-05-05 01:42 | 35.59254 | 114.95008 | 37988 ft | 527 kts | 187° |
| 2026-05-05 01:42 | 35.52000 | 114.94278 | 37991 ft | 527 kts | 187° |
| 2026-05-05 01:43 | 35.44693 | 114.93544 | 37992 ft | 527 kts | 187° |
| 2026-05-05 01:43 | 35.37397 | 114.92812 | 38000 ft | 526 kts | 187° |
| 2026-05-05 01:44 | 35.30093 | 114.92080 | 38003 ft | 527 kts | 187° |
| 2026-05-05 01:44 | 35.22790 | 114.91351 | 38004 ft | 526 kts | 187° |
| 2026-05-05 01:45 | 35.15536 | 114.90627 | 38009 ft | 526 kts | 187° |
| 2026-05-05 01:45 | 35.08234 | 114.89900 | 38011 ft | 526 kts | 187° |
| 2026-05-05 01:46 | 35.00941 | 114.89175 | 38010 ft | 526 kts | 188° |
| 2026-05-05 01:46 | 34.93641 | 114.88451 | 38013 ft | 526 kts | 188° |
| 2026-05-05 01:47 | 34.86386 | 114.87732 | 38021 ft | 526 kts | 188° |
| 2026-05-05 01:47 | 34.79082 | 114.87010 | 38015 ft | 526 kts | 188° |
| 2026-05-05 01:48 | 34.71781 | 114.86289 | 38027 ft | 526 kts | 188° |
| 2026-05-05 01:48 | 34.65718 | 114.85692 | 38026 ft | 526 kts | 188° |
| 2026-05-05 01:49 | 34.58417 | 114.84974 | 38014 ft | 526 kts | 188° |
| 2026-05-05 01:49 | 34.49935 | 114.84141 | 38026 ft | 526 kts | 188° |
| 2026-05-05 01:50 | 34.42636 | 114.83426 | 38030 ft | 526 kts | 188° |
| 2026-05-05 01:50 | 34.36573 | 114.82832 | 38034 ft | 526 kts | 188° |
| 2026-05-05 01:51 | 34.28079 | 114.82003 | 38033 ft | 526 kts | 188° |
| 2026-05-05 01:51 | 34.20782 | 114.81291 | 38034 ft | 527 kts | 188° |
| 2026-05-05 01:52 | 34.13473 | 114.80581 | 38037 ft | 527 kts | 188° |
| 2026-05-05 01:52 | 34.06161 | 114.79878 | 38039 ft | 527 kts | 188° |
| 2026-05-05 01:53 | 34.00078 | 114.79295 | 38032 ft | 527 kts | 188° |
| 2026-05-05 01:53 | 33.91576 | 114.78480 | 38043 ft | 528 kts | 188° |
| 2026-05-05 01:54 | 33.84259 | 114.77779 | 38037 ft | 528 kts | 188° |
| 2026-05-05 01:54 | 33.78168 | 114.77175 | 38044 ft | 528 kts | 188° |
| 2026-05-05 01:55 | 33.70843 | 114.76436 | 38040 ft | 528 kts | 188° |
| 2026-05-05 01:55 | 33.63512 | 114.75749 | 38035 ft | 528 kts | 188° |
| 2026-05-05 01:56 | 33.56231 | 114.75071 | 38044 ft | 528 kts | 188° |
| 2026-05-05 01:56 | 33.48926 | 114.74300 | 38045 ft | 527 kts | 188° |
| 2026-05-05 01:57 | 33.41608 | 114.73568 | 38025 ft | 528 kts | 188° |
| 2026-05-05 01:57 | 33.34294 | 114.72875 | 38038 ft | 527 kts | 188° |
| 2026-05-05 01:58 | 33.27029 | 114.72178 | 38046 ft | 526 kts | 188° |
| 2026-05-05 01:58 | 33.19729 | 114.71473 | 38044 ft | 526 kts | 188° |
| 2026-05-05 01:59 | 33.12444 | 114.70757 | 38044 ft | 525 kts | 188° |
| 2026-05-05 01:59 | 33.05158 | 114.70034 | 38048 ft | 525 kts | 188° |
| 2026-05-05 02:00 | 32.97873 | 114.69316 | 38052 ft | 525 kts | 188° |
| 2026-05-05 02:00 | 32.90640 | 114.68605 | 38044 ft | 525 kts | 188° |
| 2026-05-05 02:01 | 32.83360 | 114.67900 | 38051 ft | 525 kts | 188° |
| 2026-05-05 02:01 | 32.76076 | 114.67215 | 38053 ft | 525 kts | 188° |
| 2026-05-05 02:02 | 32.68798 | 114.66533 | 38035 ft | 525 kts | 188° |
| 2026-05-05 02:02 | 32.61562 | 114.65852 | 38049 ft | 525 kts | 188° |
| 2026-05-05 02:03 | 32.54276 | 114.65166 | 38060 ft | 525 kts | 188° |
| 2026-05-05 02:03 | 32.46991 | 114.64481 | 38055 ft | 525 kts | 188° |
| 2026-05-05 02:04 | 32.39715 | 114.63799 | 38061 ft | 525 kts | 189° |
| 2026-05-05 02:04 | 32.32479 | 114.63108 | 38055 ft | 525 kts | 189° |
| 2026-05-05 02:05 | 32.25195 | 114.62395 | 38056 ft | 525 kts | 189° |
| 2026-05-05 02:05 | 32.17911 | 114.61683 | 38048 ft | 525 kts | 189° |
| 2026-05-05 02:06 | 32.10630 | 114.60975 | 38061 ft | 525 kts | 189° |
| 2026-05-05 02:06 | 32.03359 | 114.60271 | 38062 ft | 525 kts | 189° |
| 2026-05-05 02:07 | 31.96130 | 114.59572 | 38039 ft | 524 kts | 189° |
| 2026-05-05 02:07 | 31.88862 | 114.58870 | 38067 ft | 524 kts | 189° |
| 2026-05-05 02:08 | 31.81602 | 114.58169 | 38073 ft | 523 kts | 189° |
| 2026-05-05 02:08 | 31.74343 | 114.57470 | 38080 ft | 523 kts | 189° |
| 2026-05-05 02:09 | 31.67134 | 114.56777 | 38079 ft | 523 kts | 190° |
| 2026-05-05 02:09 | 31.59879 | 114.56081 | 38083 ft | 523 kts | 190° |
| 2026-05-05 02:10 | 31.52620 | 114.55388 | 38090 ft | 523 kts | 190° |
| 2026-05-05 02:10 | 31.45366 | 114.54695 | 38084 ft | 523 kts | 190° |
| 2026-05-05 02:11 | 31.38153 | 114.54007 | 38082 ft | 523 kts | 189° |
| 2026-05-05 02:11 | 31.30894 | 114.53317 | 38088 ft | 523 kts | 189° |
| 2026-05-05 02:12 | 31.20372 | 114.50792 | 38085 ft | 508 kts | 207° |
| 2026-05-05 02:13 | 31.14050 | 114.47262 | 38084 ft | 503 kts | 212° |
| 2026-05-05 02:13 | 31.07836 | 114.43646 | 38083 ft | 503 kts | 212° |
| 2026-05-05 02:14 | 31.01533 | 114.40075 | 38090 ft | 504 kts | 211° |
| 2026-05-05 02:14 | 30.95219 | 114.36530 | 38080 ft | 504 kts | 211° |
| 2026-05-05 02:15 | 30.88870 | 114.33043 | 38095 ft | 506 kts | 210° |
| 2026-05-05 02:15 | 30.82476 | 114.29744 | 38096 ft | 507 kts | 210° |
| 2026-05-05 02:16 | 30.76069 | 114.26333 | 38073 ft | 506 kts | 211° |
| 2026-05-05 02:16 | 30.69707 | 114.22843 | 38093 ft | 506 kts | 211° |
| 2026-05-05 02:17 | 30.63341 | 114.19375 | 38093 ft | 506 kts | 211° |
| 2026-05-05 02:17 | 30.56960 | 114.15920 | 38092 ft | 506 kts | 211° |
| 2026-05-05 02:18 | 30.50623 | 114.12493 | 38087 ft | 505 kts | 211° |
| 2026-05-05 02:18 | 30.44253 | 114.09055 | 38080 ft | 505 kts | 211° |
| 2026-05-05 02:19 | 30.37882 | 114.05620 | 38078 ft | 505 kts | 211° |
| 2026-05-05 02:19 | 30.31545 | 114.02206 | 38076 ft | 506 kts | 211° |
| 2026-05-05 02:20 | 30.25169 | 113.98778 | 38079 ft | 505 kts | 211° |
| 2026-05-05 02:20 | 30.18788 | 113.95357 | 38086 ft | 505 kts | 211° |
| 2026-05-05 02:21 | 30.12409 | 113.91947 | 38085 ft | 506 kts | 211° |
| 2026-05-05 02:21 | 30.06014 | 113.88531 | 38068 ft | 506 kts | 212° |
| 2026-05-05 02:22 | 29.99669 | 113.85145 | 38083 ft | 506 kts | 212° |
| 2026-05-05 02:22 | 29.93286 | 113.81744 | 38087 ft | 506 kts | 211° |
| 2026-05-05 02:23 | 29.86583 | 113.79029 | 38091 ft | 518 kts | 200° |
| 2026-05-05 02:23 | 29.79398 | 113.77783 | 38101 ft | 528 kts | 190° |
| 2026-05-05 02:24 | 29.72099 | 113.77342 | 38094 ft | 529 kts | 189° |
| 2026-05-05 02:24 | 29.64744 | 113.76907 | 38099 ft | 529 kts | 190° |
| 2026-05-05 02:25 | 29.57394 | 113.76413 | 38111 ft | 529 kts | 190° |
| 2026-05-05 02:25 | 29.50051 | 113.75897 | 38105 ft | 528 kts | 190° |
| 2026-05-05 02:26 | 29.42716 | 113.75377 | 38113 ft | 528 kts | 190° |
| 2026-05-05 02:26 | 29.35439 | 113.74879 | 38098 ft | 528 kts | 190° |
| 2026-05-05 02:27 | 29.28100 | 113.74372 | 38106 ft | 528 kts | 190° |
| 2026-05-05 02:27 | 29.20741 | 113.74051 | 38113 ft | 533 kts | 185° |
| 2026-05-05 02:28 | 29.13320 | 113.74292 | 38128 ft | 534 kts | 185° |
| 2026-05-05 02:28 | 29.05947 | 113.74561 | 38135 ft | 533 kts | 185° |
| 2026-05-05 02:29 | 28.98531 | 113.74790 | 38125 ft | 533 kts | 185° |
| 2026-05-05 02:29 | 28.91112 | 113.74998 | 38128 ft | 533 kts | 185° |
| 2026-05-05 02:30 | 28.83697 | 113.75209 | 38128 ft | 532 kts | 185° |
| 2026-05-05 02:30 | 28.76297 | 113.75429 | 38095 ft | 531 kts | 186° |
| 2026-05-05 02:31 | 28.69047 | 113.75246 | 38140 ft | 521 kts | 191° |
| 2026-05-05 02:31 | 28.61826 | 113.74656 | 38139 ft | 520 kts | 191° |
| 2026-05-05 02:32 | 28.54612 | 113.74088 | 38142 ft | 520 kts | 191° |
| 2026-05-05 02:32 | 28.47395 | 113.73559 | 38131 ft | 519 kts | 191° |
| 2026-05-05 02:33 | 28.40234 | 113.73039 | 38139 ft | 519 kts | 191° |
| 2026-05-05 02:33 | 28.33037 | 113.72512 | 38143 ft | 518 kts | 191° |
| 2026-05-05 02:34 | 28.25837 | 113.71990 | 38142 ft | 518 kts | 191° |
| 2026-05-05 02:34 | 28.18645 | 113.71469 | 38144 ft | 517 kts | 192° |
| 2026-05-05 02:35 | 28.11512 | 113.70940 | 38149 ft | 517 kts | 192° |
| 2026-05-05 02:35 | 28.04357 | 113.70306 | 38143 ft | 516 kts | 193° |
| 2026-05-05 02:36 | 27.97197 | 113.69654 | 38089 ft | 516 kts | 192° |
| 2026-05-05 02:36 | 27.90043 | 113.69017 | 38152 ft | 516 kts | 193° |
| 2026-05-05 02:37 | 27.82929 | 113.68384 | 38147 ft | 516 kts | 193° |
| 2026-05-05 02:37 | 27.75757 | 113.67744 | 38145 ft | 517 kts | 193° |
| 2026-05-05 02:38 | 27.68574 | 113.67104 | 38107 ft | 518 kts | 193° |
| 2026-05-05 02:38 | 27.61371 | 113.66595 | 38140 ft | 521 kts | 189° |
| 2026-05-05 02:39 | 27.54151 | 113.66449 | 38147 ft | 523 kts | 189° |
| 2026-05-05 02:39 | 27.46880 | 113.66331 | 38147 ft | 523 kts | 189° |
| 2026-05-05 02:40 | 27.39604 | 113.66180 | 38118 ft | 522 kts | 189° |
| 2026-05-05 02:40 | 27.32363 | 113.66015 | 38156 ft | 520 kts | 189° |
| 2026-05-05 02:41 | 27.25132 | 113.65854 | 38151 ft | 519 kts | 189° |
| 2026-05-05 02:41 | 27.17922 | 113.66070 | 38144 ft | 528 kts | 181° |
| 2026-05-05 02:42 | 27.10660 | 113.67697 | 38152 ft | 537 kts | 173° |
| 2026-05-05 02:42 | 27.03452 | 113.69924 | 38151 ft | 537 kts | 172° |
| 2026-05-05 02:43 | 26.96249 | 113.72108 | 38144 ft | 535 kts | 173° |
| 2026-05-05 02:43 | 26.89096 | 113.74217 | 38156 ft | 535 kts | 173° |
| 2026-05-05 02:44 | 26.81904 | 113.76326 | 38145 ft | 533 kts | 173° |
| 2026-05-05 02:44 | 26.74735 | 113.78432 | 38144 ft | 532 kts | 174° |
| 2026-05-05 02:45 | 26.67599 | 113.80620 | 38155 ft | 532 kts | 172° |
| 2026-05-05 02:45 | 26.60480 | 113.82882 | 38155 ft | 531 kts | 172° |
| 2026-05-05 02:46 | 26.53413 | 113.85103 | 38131 ft | 530 kts | 173° |
| 2026-05-05 02:46 | 26.46307 | 113.87283 | 38145 ft | 529 kts | 174° |
| 2026-05-05 02:47 | 26.39183 | 113.89329 | 38162 ft | 529 kts | 174° |
| 2026-05-05 02:47 | 26.32047 | 113.91366 | 38162 ft | 530 kts | 174° |
| 2026-05-05 02:48 | 26.24947 | 113.93404 | 38164 ft | 531 kts | 174° |
| 2026-05-05 02:48 | 26.17803 | 113.95466 | 38162 ft | 531 kts | 174° |
| 2026-05-05 02:49 | 26.10650 | 113.97530 | 38166 ft | 531 kts | 174° |
| 2026-05-05 02:49 | 26.03493 | 113.99590 | 38164 ft | 531 kts | 174° |
| 2026-05-05 02:50 | 25.96386 | 114.01660 | 38127 ft | 532 kts | 173° |
| 2026-05-05 02:50 | 25.89241 | 114.03793 | 38150 ft | 532 kts | 173° |
| 2026-05-05 02:51 | 25.82095 | 114.05927 | 38155 ft | 532 kts | 173° |
| 2026-05-05 02:51 | 25.74957 | 114.08049 | 38164 ft | 531 kts | 174° |
| 2026-05-05 02:52 | 25.67858 | 114.10149 | 38159 ft | 531 kts | 174° |
| 2026-05-05 02:52 | 25.60721 | 114.12259 | 38158 ft | 530 kts | 173° |
| 2026-05-05 02:53 | 25.53590 | 114.14364 | 38150 ft | 530 kts | 173° |
| 2026-05-05 02:53 | 25.46476 | 114.16463 | 38153 ft | 530 kts | 173° |
| 2026-05-05 02:54 | 25.39403 | 114.18547 | 38161 ft | 529 kts | 173° |
| 2026-05-05 02:54 | 25.32289 | 114.20642 | 38165 ft | 528 kts | 173° |
| 2026-05-05 02:55 | 25.25180 | 114.22732 | 38157 ft | 529 kts | 173° |
| 2026-05-05 02:55 | 25.18071 | 114.24820 | 38165 ft | 529 kts | 173° |
| 2026-05-05 02:56 | 25.10938 | 114.26404 | 38155 ft | 514 kts | 185° |
| 2026-05-05 02:56 | 25.03970 | 114.26216 | 38156 ft | 497 kts | 197° |
| 2026-05-05 02:57 | 24.97247 | 114.24755 | 38153 ft | 492 kts | 200° |
| 2026-05-05 02:57 | 24.90529 | 114.23217 | 38153 ft | 494 kts | 200° |
| 2026-05-05 02:58 | 24.83787 | 114.21725 | 38157 ft | 494 kts | 199° |
| 2026-05-05 02:58 | 24.77081 | 114.20271 | 38157 ft | 494 kts | 199° |
| 2026-05-05 02:59 | 24.70325 | 114.18807 | 38158 ft | 495 kts | 199° |
| 2026-05-05 02:59 | 24.63561 | 114.17342 | 38163 ft | 495 kts | 199° |
| 2026-05-05 03:00 | 24.56794 | 114.15877 | 38163 ft | 496 kts | 199° |
| 2026-05-05 03:00 | 24.50072 | 114.14422 | 38145 ft | 495 kts | 199° |
| 2026-05-05 03:01 | 24.43303 | 114.12959 | 38162 ft | 496 kts | 199° |
| 2026-05-05 03:01 | 24.36523 | 114.11496 | 38169 ft | 497 kts | 199° |
| 2026-05-05 03:02 | 24.29871 | 114.09673 | 38173 ft | 492 kts | 203° |
| 2026-05-05 03:02 | 24.23324 | 114.07642 | 38140 ft | 493 kts | 203° |
| 2026-05-05 03:03 | 24.16722 | 114.05604 | 38159 ft | 493 kts | 203° |
| 2026-05-05 03:03 | 24.10101 | 114.03585 | 38158 ft | 494 kts | 203° |
| 2026-05-05 03:04 | 24.03470 | 114.01574 | 38180 ft | 494 kts | 203° |
| 2026-05-05 03:04 | 23.96884 | 113.99578 | 38144 ft | 495 kts | 203° |
| 2026-05-05 03:05 | 23.90247 | 113.97568 | 38158 ft | 495 kts | 203° |
| 2026-05-05 03:05 | 23.83613 | 113.95559 | 38159 ft | 496 kts | 202° |
| 2026-05-05 03:06 | 23.76960 | 113.93548 | 38161 ft | 496 kts | 203° |
| 2026-05-05 03:06 | 23.70353 | 113.91551 | 38123 ft | 496 kts | 203° |
| 2026-05-05 03:07 | 23.63708 | 113.89547 | 38143 ft | 495 kts | 202° |
| 2026-05-05 03:07 | 23.57063 | 113.87543 | 38154 ft | 495 kts | 202° |
| 2026-05-05 03:08 | 23.50411 | 113.85540 | 38163 ft | 496 kts | 202° |
| 2026-05-05 03:08 | 23.43739 | 113.83531 | 38152 ft | 498 kts | 202° |
| 2026-05-05 03:09 | 23.37100 | 113.81527 | 38150 ft | 499 kts | 202° |
| 2026-05-05 03:09 | 23.30409 | 113.79508 | 38146 ft | 499 kts | 202° |
| 2026-05-05 03:10 | 23.23719 | 113.77494 | 38146 ft | 499 kts | 202° |
| 2026-05-05 03:10 | 23.17019 | 113.75480 | 38134 ft | 499 kts | 202° |
| 2026-05-05 03:11 | 23.10386 | 113.73488 | 38133 ft | 498 kts | 202° |
| 2026-05-05 03:11 | 23.03712 | 113.71485 | 38152 ft | 497 kts | 202° |
| 2026-05-05 03:12 | 22.97034 | 113.69482 | 38135 ft | 498 kts | 202° |
| 2026-05-05 03:12 | 22.90350 | 113.67480 | 38142 ft | 498 kts | 202° |
| 2026-05-05 03:13 | 22.83713 | 113.65476 | 38111 ft | 498 kts | 202° |
| 2026-05-05 03:13 | 22.77047 | 113.63436 | 38143 ft | 497 kts | 202° |
| 2026-05-05 03:14 | 22.70389 | 113.61404 | 38149 ft | 498 kts | 202° |
| 2026-05-05 03:14 | 22.63719 | 113.59374 | 38152 ft | 498 kts | 202° |
| 2026-05-05 03:14 | 22.60326 | 113.58574 | 38133 ft | 506 kts | 190° |
| 2026-05-05 03:15 | 22.56769 | 113.58760 | 38147 ft | 521 kts | 174° |
| 2026-05-05 03:15 | 22.53346 | 113.60016 | 38143 ft | 534 kts | 157° |
| 2026-05-05 03:15 | 22.50211 | 113.62238 | 38151 ft | 545 kts | 143° |
| 2026-05-05 03:15 | 22.47641 | 113.65283 | 38135 ft | 554 kts | 126° |
| 2026-05-05 03:16 | 22.45664 | 113.68874 | 38150 ft | 558 kts | 121° |
| 2026-05-05 03:16 | 22.41845 | 113.76179 | 38146 ft | 559 kts | 123° |
| 2026-05-05 03:17 | 22.36987 | 113.82559 | 38158 ft | 544 kts | 149° |
| 2026-05-05 03:17 | 22.33734 | 113.84533 | 38163 ft | 533 kts | 163° |
| 2026-05-05 03:17 | 22.30286 | 113.85764 | 38152 ft | 526 kts | 173° |
| 2026-05-05 03:17 | 22.26701 | 113.86294 | 38138 ft | 514 kts | 187° |
| 2026-05-05 03:18 | 22.23175 | 113.86064 | 38174 ft | 507 kts | 191° |
| 2026-05-05 03:18 | 22.16128 | 113.85466 | 38153 ft | 509 kts | 190° |
| 2026-05-05 03:19 | 22.05474 | 113.84706 | 38147 ft | 513 kts | 189° |
| 2026-05-05 03:19 | 21.98384 | 113.84259 | 38138 ft | 514 kts | 189° |
| 2026-05-05 03:20 | 21.91231 | 113.83812 | 38114 ft | 515 kts | 189° |
| 2026-05-05 03:20 | 21.84243 | 113.83371 | 38134 ft | 515 kts | 189° |
| 2026-05-05 03:21 | 21.77098 | 113.82919 | 38124 ft | 514 kts | 189° |
| 2026-05-05 03:21 | 21.70012 | 113.82469 | 38119 ft | 513 kts | 189° |
| 2026-05-05 03:22 | 21.62898 | 113.82019 | 38113 ft | 512 kts | 189° |
| 2026-05-05 03:22 | 21.55791 | 113.81570 | 38121 ft | 511 kts | 188° |
| 2026-05-05 03:23 | 21.48694 | 113.81121 | 38112 ft | 511 kts | 188° |
| 2026-05-05 03:23 | 21.41653 | 113.80676 | 38117 ft | 510 kts | 188° |
| 2026-05-05 03:24 | 21.34565 | 113.80229 | 38112 ft | 510 kts | 188° |
| 2026-05-05 03:24 | 21.27480 | 113.79782 | 38104 ft | 509 kts | 188° |
| 2026-05-05 03:25 | 21.20414 | 113.79338 | 38103 ft | 509 kts | 188° |
| 2026-05-05 03:25 | 21.13346 | 113.78893 | 38110 ft | 509 kts | 188° |
| 2026-05-05 03:26 | 21.06327 | 113.78427 | 38104 ft | 508 kts | 189° |
| 2026-05-05 03:26 | 20.99308 | 113.77667 | 38089 ft | 507 kts | 191° |
| 2026-05-05 03:27 | 20.92306 | 113.76806 | 38101 ft | 507 kts | 191° |
| 2026-05-05 03:27 | 20.85269 | 113.75977 | 38095 ft | 510 kts | 191° |
| 2026-05-05 03:28 | 20.78256 | 113.75187 | 38106 ft | 510 kts | 191° |
| 2026-05-05 03:28 | 20.71185 | 113.74401 | 38087 ft | 511 kts | 191° |
| 2026-05-05 03:29 | 20.64106 | 113.73614 | 38099 ft | 512 kts | 191° |
| 2026-05-05 03:29 | 20.57026 | 113.72826 | 38099 ft | 512 kts | 191° |
| 2026-05-05 03:30 | 20.49929 | 113.72036 | 38100 ft | 513 kts | 191° |
| 2026-05-05 03:30 | 20.42874 | 113.71250 | 38098 ft | 513 kts | 191° |
| 2026-05-05 03:31 | 20.35768 | 113.70460 | 38093 ft | 513 kts | 191° |
| 2026-05-05 03:31 | 20.28658 | 113.69671 | 38091 ft | 514 kts | 191° |
| 2026-05-05 03:32 | 20.21549 | 113.68882 | 38092 ft | 513 kts | 190° |
| 2026-05-05 03:32 | 20.14498 | 113.68100 | 38091 ft | 513 kts | 190° |
| 2026-05-05 03:33 | 20.07398 | 113.67313 | 38079 ft | 512 kts | 190° |
| 2026-05-05 03:33 | 20.00313 | 113.66530 | 38087 ft | 511 kts | 190° |
| 2026-05-05 03:34 | 19.93238 | 113.65747 | 38087 ft | 511 kts | 190° |
| 2026-05-05 03:34 | 19.86217 | 113.64971 | 38089 ft | 510 kts | 190° |
| 2026-05-05 03:35 | 19.79166 | 113.64193 | 38077 ft | 510 kts | 190° |
| 2026-05-05 03:35 | 19.72118 | 113.63416 | 38083 ft | 509 kts | 190° |
| 2026-05-05 03:36 | 19.65078 | 113.62640 | 38096 ft | 508 kts | 190° |
| 2026-05-05 03:36 | 19.58090 | 113.61871 | 38081 ft | 508 kts | 190° |
| 2026-05-05 03:37 | 19.51058 | 113.61097 | 38079 ft | 508 kts | 190° |
| 2026-05-05 03:37 | 19.44028 | 113.60324 | 38086 ft | 508 kts | 191° |
| 2026-05-05 03:38 | 19.37005 | 113.59553 | 38079 ft | 508 kts | 191° |
| 2026-05-05 03:38 | 19.29972 | 113.58781 | 38078 ft | 508 kts | 191° |
| 2026-05-05 03:39 | 19.22982 | 113.58015 | 38076 ft | 508 kts | 191° |
| 2026-05-05 03:39 | 19.15940 | 113.57244 | 38063 ft | 509 kts | 191° |
| 2026-05-05 03:40 | 19.08894 | 113.56473 | 38076 ft | 509 kts | 191° |
| 2026-05-05 03:40 | 19.01841 | 113.55701 | 38077 ft | 510 kts | 191° |
| 2026-05-05 03:41 | 18.94845 | 113.54839 | 38073 ft | 509 kts | 192° |
| 2026-05-05 03:41 | 18.87838 | 113.53794 | 38062 ft | 509 kts | 193° |
| 2026-05-05 03:42 | 18.80819 | 113.52755 | 38068 ft | 509 kts | 192° |
| 2026-05-05 03:42 | 18.73790 | 113.51749 | 38071 ft | 510 kts | 192° |
| 2026-05-05 03:43 | 18.66804 | 113.50755 | 38067 ft | 510 kts | 192° |
| 2026-05-05 03:43 | 18.59790 | 113.49673 | 38060 ft | 506 kts | 198° |
| 2026-05-05 03:44 | 18.53288 | 113.47116 | 38066 ft | 495 kts | 212° |
| 2026-05-05 03:44 | 18.47624 | 113.43123 | 38067 ft | 488 kts | 221° |
| 2026-05-05 03:45 | 18.42190 | 113.38830 | 38064 ft | 489 kts | 221° |
| 2026-05-05 03:45 | 18.36756 | 113.34587 | 38062 ft | 490 kts | 220° |
| 2026-05-05 03:46 | 18.31257 | 113.30344 | 38064 ft | 490 kts | 220° |
| 2026-05-05 03:46 | 18.25747 | 113.26110 | 38055 ft | 490 kts | 220° |
| 2026-05-05 03:47 | 18.20272 | 113.21904 | 38063 ft | 491 kts | 220° |
| 2026-05-05 03:47 | 18.14759 | 113.17669 | 38056 ft | 491 kts | 220° |
| 2026-05-05 03:48 | 18.09250 | 113.13441 | 38059 ft | 491 kts | 220° |
| 2026-05-05 03:48 | 18.03735 | 113.09211 | 38058 ft | 491 kts | 220° |
| 2026-05-05 03:49 | 17.98220 | 113.04984 | 38052 ft | 491 kts | 220° |
| 2026-05-05 03:49 | 17.92744 | 113.00790 | 38057 ft | 490 kts | 220° |
| 2026-05-05 03:50 | 17.87229 | 112.96569 | 38056 ft | 490 kts | 220° |
| 2026-05-05 03:50 | 17.81739 | 112.92322 | 38056 ft | 490 kts | 221° |
| 2026-05-05 03:51 | 17.76299 | 112.88029 | 38057 ft | 490 kts | 221° |
| 2026-05-05 03:51 | 17.70890 | 112.83759 | 38039 ft | 490 kts | 221° |
| 2026-05-05 03:52 | 17.65438 | 112.79472 | 38058 ft | 490 kts | 221° |
| 2026-05-05 03:52 | 17.59980 | 112.75189 | 38052 ft | 490 kts | 221° |
| 2026-05-05 03:53 | 17.54515 | 112.70905 | 38055 ft | 491 kts | 221° |
| 2026-05-05 03:53 | 17.49081 | 112.66648 | 38053 ft | 491 kts | 221° |
| 2026-05-05 03:54 | 17.43613 | 112.62367 | 38054 ft | 491 kts | 221° |
| 2026-05-05 03:54 | 17.38135 | 112.58081 | 38056 ft | 492 kts | 221° |
| 2026-05-05 03:55 | 17.32653 | 112.53796 | 38056 ft | 492 kts | 221° |
| 2026-05-05 03:55 | 17.27205 | 112.49540 | 38056 ft | 492 kts | 221° |
| 2026-05-05 03:56 | 17.21719 | 112.45258 | 38054 ft | 492 kts | 220° |
| 2026-05-05 03:56 | 17.16230 | 112.40977 | 38054 ft | 492 kts | 220° |
| 2026-05-05 03:57 | 17.10744 | 112.36701 | 38046 ft | 492 kts | 221° |
| 2026-05-05 03:57 | 17.05253 | 112.32424 | 38058 ft | 492 kts | 221° |
| 2026-05-05 03:58 | 16.99796 | 112.28177 | 38053 ft | 492 kts | 220° |
| 2026-05-05 03:58 | 16.94263 | 112.23949 | 38053 ft | 493 kts | 220° |
| 2026-05-05 03:59 | 16.88705 | 112.19754 | 38051 ft | 493 kts | 220° |
| 2026-05-05 03:59 | 16.83149 | 112.15558 | 38047 ft | 493 kts | 220° |
| 2026-05-05 04:00 | 16.77641 | 112.11391 | 38049 ft | 493 kts | 220° |
| 2026-05-05 04:00 | 16.72094 | 112.07192 | 38052 ft | 492 kts | 220° |
| 2026-05-05 04:01 | 16.66547 | 112.02996 | 38055 ft | 493 kts | 220° |
| 2026-05-05 04:01 | 16.61028 | 111.98824 | 37991 ft | 494 kts | 220° |
| 2026-05-05 04:02 | 16.55463 | 111.94622 | 37954 ft | 494 kts | 220° |
| 2026-05-05 04:02 | 16.49894 | 111.90420 | 37941 ft | 494 kts | 220° |
| 2026-05-05 04:03 | 16.44326 | 111.86222 | 37953 ft | 494 kts | 220° |
| 2026-05-05 04:03 | 16.38763 | 111.82031 | 37950 ft | 494 kts | 220° |
| 2026-05-05 04:04 | 16.33232 | 111.77866 | 37944 ft | 494 kts | 220° |
| 2026-05-05 04:04 | 16.27663 | 111.73676 | 37948 ft | 494 kts | 220° |
| 2026-05-05 04:05 | 16.22091 | 111.69487 | 37944 ft | 494 kts | 220° |
| 2026-05-05 04:05 | 16.16522 | 111.65303 | 37949 ft | 494 kts | 220° |
| 2026-05-05 04:06 | 16.10981 | 111.61143 | 37946 ft | 494 kts | 220° |
| 2026-05-05 04:06 | 16.05402 | 111.56957 | 37944 ft | 495 kts | 219° |
| 2026-05-05 04:07 | 15.99819 | 111.52771 | 37947 ft | 495 kts | 219° |
| 2026-05-05 04:07 | 15.94234 | 111.48587 | 37950 ft | 495 kts | 219° |
| 2026-05-05 04:08 | 15.88651 | 111.44407 | 37937 ft | 495 kts | 219° |
| 2026-05-05 04:08 | 15.83093 | 111.40248 | 37946 ft | 496 kts | 219° |
| 2026-05-05 04:09 | 15.77491 | 111.36060 | 37943 ft | 496 kts | 219° |
| 2026-05-05 04:09 | 15.71882 | 111.31869 | 37943 ft | 497 kts | 219° |
| 2026-05-05 04:10 | 15.66268 | 111.27678 | 37943 ft | 497 kts | 219° |
| 2026-05-05 04:10 | 15.60693 | 111.23518 | 37935 ft | 497 kts | 219° |
| 2026-05-05 04:11 | 15.55073 | 111.19327 | 37941 ft | 498 kts | 219° |
| 2026-05-05 04:11 | 15.49449 | 111.15137 | 37939 ft | 498 kts | 219° |
| 2026-05-05 04:12 | 15.43822 | 111.10946 | 37945 ft | 498 kts | 219° |
| 2026-05-05 04:12 | 15.38230 | 111.06784 | 37942 ft | 498 kts | 219° |
| 2026-05-05 04:13 | 15.32609 | 111.02582 | 37940 ft | 498 kts | 220° |
| 2026-05-05 04:13 | 15.27027 | 110.98334 | 37934 ft | 498 kts | 220° |
| 2026-05-05 04:14 | 15.21458 | 110.94088 | 37940 ft | 498 kts | 220° |
| 2026-05-05 04:14 | 15.15916 | 110.89874 | 37943 ft | 497 kts | 220° |
| 2026-05-05 04:15 | 15.10333 | 110.85638 | 37945 ft | 497 kts | 220° |
| 2026-05-05 04:15 | 15.04749 | 110.81406 | 37936 ft | 497 kts | 220° |
| 2026-05-05 04:16 | 14.99164 | 110.77175 | 37928 ft | 498 kts | 219° |
| 2026-05-05 04:16 | 14.93611 | 110.72971 | 37943 ft | 498 kts | 219° |
| 2026-05-05 04:17 | 14.88018 | 110.68738 | 37940 ft | 499 kts | 219° |
| 2026-05-05 04:17 | 14.82411 | 110.64499 | 37941 ft | 500 kts | 219° |
| 2026-05-05 04:18 | 14.76797 | 110.60257 | 37940 ft | 500 kts | 219° |
| 2026-05-05 04:18 | 14.71178 | 110.56014 | 37940 ft | 500 kts | 219° |
| 2026-05-05 04:19 | 14.65591 | 110.51797 | 37931 ft | 501 kts | 218° |
| 2026-05-05 04:19 | 14.59959 | 110.47550 | 37939 ft | 502 kts | 218° |
| 2026-05-05 04:20 | 14.54318 | 110.43299 | 37941 ft | 502 kts | 218° |
| 2026-05-05 04:20 | 14.48672 | 110.39047 | 37939 ft | 502 kts | 218° |
| 2026-05-05 04:21 | 14.43063 | 110.34825 | 37937 ft | 502 kts | 218° |
| 2026-05-05 04:21 | 14.37423 | 110.30583 | 37942 ft | 502 kts | 218° |
| 2026-05-05 04:22 | 14.31777 | 110.26338 | 37940 ft | 502 kts | 218° |
| 2026-05-05 04:22 | 14.26132 | 110.22097 | 37940 ft | 502 kts | 218° |
| 2026-05-05 04:23 | 14.20488 | 110.17860 | 37936 ft | 502 kts | 218° |
| 2026-05-05 04:23 | 14.14882 | 110.13653 | 37937 ft | 502 kts | 218° |
| 2026-05-05 04:24 | 14.09243 | 110.09425 | 37940 ft | 501 kts | 218° |
| 2026-05-05 04:25 | 14.00796 | 110.03094 | 37935 ft | 501 kts | 218° |
| 2026-05-05 04:25 | 13.95106 | 109.98938 | 37941 ft | 502 kts | 214° |
| 2026-05-05 04:26 | 13.89217 | 109.95135 | 37947 ft | 503 kts | 214° |
| 2026-05-05 04:26 | 13.83250 | 109.91345 | 37943 ft | 504 kts | 214° |
| 2026-05-05 04:27 | 13.77285 | 109.87534 | 37937 ft | 505 kts | 214° |
| 2026-05-05 04:27 | 13.71332 | 109.83711 | 37940 ft | 505 kts | 213° |
| 2026-05-05 04:28 | 13.65408 | 109.79903 | 37940 ft | 505 kts | 213° |
| 2026-05-05 04:28 | 13.59445 | 109.76074 | 37945 ft | 505 kts | 214° |
| 2026-05-05 04:29 | 13.53482 | 109.72248 | 37940 ft | 505 kts | 214° |
| 2026-05-05 04:29 | 13.47522 | 109.68426 | 37940 ft | 505 kts | 214° |
| 2026-05-05 04:30 | 13.41571 | 109.64613 | 37939 ft | 504 kts | 213° |
| 2026-05-05 04:30 | 13.35660 | 109.60827 | 37945 ft | 503 kts | 213° |
| 2026-05-05 04:31 | 13.29719 | 109.57025 | 37944 ft | 503 kts | 213° |
| 2026-05-05 04:31 | 13.23785 | 109.53229 | 37941 ft | 502 kts | 213° |
| 2026-05-05 04:32 | 13.17857 | 109.49439 | 37948 ft | 502 kts | 213° |
| 2026-05-05 04:32 | 13.11941 | 109.45659 | 37940 ft | 501 kts | 213° |
| 2026-05-05 04:33 | 13.06051 | 109.41897 | 37939 ft | 503 kts | 213° |
| 2026-05-05 04:33 | 13.00103 | 109.38101 | 37958 ft | 504 kts | 213° |
| 2026-05-05 04:34 | 12.95141 | 109.34936 | 37957 ft | 506 kts | 213° |
| 2026-05-05 04:34 | 12.89160 | 109.31123 | 37958 ft | 507 kts | 213° |
| 2026-05-05 04:35 | 12.83155 | 109.27296 | 37952 ft | 509 kts | 213° |
| 2026-05-05 04:35 | 12.76165 | 109.22844 | 37953 ft | 509 kts | 213° |
| 2026-05-05 04:36 | 12.71158 | 109.19657 | 37957 ft | 510 kts | 213° |
| 2026-05-05 04:36 | 12.65133 | 109.15824 | 37961 ft | 510 kts | 213° |
| 2026-05-05 04:37 | 12.58125 | 109.11374 | 37966 ft | 510 kts | 213° |
| 2026-05-05 04:37 | 12.53083 | 109.08176 | 37965 ft | 509 kts | 213° |
| 2026-05-05 04:38 | 12.47115 | 109.04391 | 37965 ft | 507 kts | 213° |
| 2026-05-05 04:38 | 12.41126 | 109.00594 | 37956 ft | 505 kts | 213° |
| 2026-05-05 04:39 | 12.35156 | 108.96810 | 37972 ft | 504 kts | 213° |
| 2026-05-05 04:39 | 12.29194 | 108.93033 | 37976 ft | 503 kts | 213° |
| 2026-05-05 04:40 | 12.23279 | 108.89289 | 37981 ft | 503 kts | 214° |
| 2026-05-05 04:40 | 12.17330 | 108.85525 | 37980 ft | 503 kts | 214° |
| 2026-05-05 04:41 | 12.11369 | 108.81755 | 37984 ft | 504 kts | 213° |
| 2026-05-05 04:41 | 12.05400 | 108.77981 | 37980 ft | 505 kts | 212° |
| 2026-05-05 04:42 | 11.99450 | 108.74223 | 37985 ft | 507 kts | 212° |
| 2026-05-05 04:42 | 11.93432 | 108.70423 | 37995 ft | 510 kts | 212° |
| 2026-05-05 04:43 | 11.87387 | 108.66607 | 37977 ft | 512 kts | 212° |
| 2026-05-05 04:43 | 11.81318 | 108.62779 | 37968 ft | 513 kts | 212° |
| 2026-05-05 04:44 | 11.75279 | 108.58977 | 37957 ft | 515 kts | 212° |
| 2026-05-05 04:44 | 11.69169 | 108.55130 | 37958 ft | 516 kts | 212° |
| 2026-05-05 04:45 | 11.63047 | 108.51276 | 37948 ft | 517 kts | 212° |
| 2026-05-05 04:45 | 11.56958 | 108.47445 | 37930 ft | 518 kts | 212° |
| 2026-05-05 04:46 | 11.50831 | 108.43592 | 37937 ft | 518 kts | 212° |
| 2026-05-05 04:46 | 11.44698 | 108.39737 | 37938 ft | 517 kts | 213° |
| 2026-05-05 04:47 | 11.38576 | 108.35891 | 37921 ft | 517 kts | 213° |
| 2026-05-05 04:47 | 11.32500 | 108.32076 | 37921 ft | 516 kts | 213° |
| 2026-05-05 04:48 | 11.26388 | 108.28240 | 37899 ft | 516 kts | 213° |
| 2026-05-05 04:48 | 11.20281 | 108.24409 | 37909 ft | 515 kts | 213° |
| 2026-05-05 04:49 | 11.14176 | 108.20582 | 37901 ft | 515 kts | 212° |
| 2026-05-05 04:49 | 11.08081 | 108.16762 | 37899 ft | 515 kts | 213° |
| 2026-05-05 04:50 | 11.02018 | 108.12963 | 37902 ft | 515 kts | 213° |
| 2026-05-05 04:50 | 10.95913 | 108.09140 | 37893 ft | 515 kts | 213° |
| 2026-05-05 04:51 | 10.89828 | 108.05286 | 37905 ft | 515 kts | 213° |
| 2026-05-05 04:51 | 10.83840 | 108.01294 | 37898 ft | 515 kts | 215° |
| 2026-05-05 04:52 | 10.77898 | 107.97304 | 37895 ft | 515 kts | 214° |
| 2026-05-05 04:52 | 10.71901 | 107.93308 | 37901 ft | 515 kts | 214° |
| 2026-05-05 04:53 | 10.65892 | 107.89324 | 37897 ft | 516 kts | 214° |
| 2026-05-05 04:53 | 10.59890 | 107.85345 | 37894 ft | 516 kts | 214° |
| 2026-05-05 04:54 | 10.53920 | 107.81387 | 37893 ft | 516 kts | 213° |
| 2026-05-05 04:54 | 10.47911 | 107.77404 | 37890 ft | 516 kts | 214° |
| 2026-05-05 04:55 | 10.41900 | 107.73428 | 37895 ft | 516 kts | 212° |
| 2026-05-05 04:55 | 10.35875 | 107.69460 | 37891 ft | 516 kts | 212° |
| 2026-05-05 04:56 | 10.29884 | 107.65516 | 37892 ft | 517 kts | 212° |
| 2026-05-05 04:56 | 10.23853 | 107.61543 | 37898 ft | 517 kts | 212° |
| 2026-05-05 04:57 | 10.17810 | 107.57562 | 37897 ft | 518 kts | 212° |
| 2026-05-05 04:57 | 10.11763 | 107.53582 | 37892 ft | 518 kts | 212° |
| 2026-05-05 04:58 | 10.05753 | 107.49619 | 37880 ft | 519 kts | 212° |
| 2026-05-05 04:58 | 9.99686 | 107.45618 | 37892 ft | 521 kts | 212° |
| 2026-05-05 04:59 | 9.93594 | 107.41603 | 37897 ft | 523 kts | 212° |
| 2026-05-05 04:59 | 9.87486 | 107.37577 | 37900 ft | 522 kts | 213° |
| 2026-05-05 05:00 | 9.81452 | 107.33603 | 37883 ft | 514 kts | 213° |
| 2026-05-05 05:00 | 9.75503 | 107.29687 | 37892 ft | 512 kts | 213° |
| 2026-05-05 05:01 | 9.69526 | 107.25754 | 37899 ft | 512 kts | 213° |
| 2026-05-05 05:01 | 9.63545 | 107.21820 | 37891 ft | 513 kts | 214° |
| 2026-05-05 05:02 | 9.57548 | 107.17877 | 37894 ft | 514 kts | 213° |
| 2026-05-05 05:02 | 9.51531 | 107.13922 | 37893 ft | 516 kts | 213° |
| 2026-05-05 05:03 | 9.45543 | 107.09989 | 37889 ft | 518 kts | 213° |
| 2026-05-05 05:03 | 9.39491 | 107.06015 | 37888 ft | 519 kts | 213° |
| 2026-05-05 05:04 | 9.33423 | 107.02033 | 37890 ft | 519 kts | 212° |
| 2026-05-05 05:04 | 9.27404 | 106.98084 | 37882 ft | 518 kts | 212° |
| 2026-05-05 05:05 | 9.21367 | 106.94126 | 37883 ft | 517 kts | 212° |
| 2026-05-05 05:05 | 9.15343 | 106.90176 | 37883 ft | 515 kts | 212° |
| 2026-05-05 05:06 | 9.09335 | 106.86239 | 37879 ft | 514 kts | 212° |
| 2026-05-05 05:06 | 9.03336 | 106.82311 | 37876 ft | 514 kts | 213° |
| 2026-05-05 05:07 | 8.97347 | 106.78389 | 37894 ft | 519 kts | 213° |
| 2026-05-05 05:07 | 8.91257 | 106.74403 | 37885 ft | 523 kts | 213° |
| 2026-05-05 05:08 | 8.85134 | 106.70396 | 37887 ft | 525 kts | 213° |
| 2026-05-05 05:08 | 8.79015 | 106.66394 | 37877 ft | 523 kts | 213° |
| 2026-05-05 05:09 | 8.72978 | 106.62448 | 37873 ft | 518 kts | 213° |
| 2026-05-05 05:09 | 8.66870 | 106.58597 | 37885 ft | 517 kts | 211° |
| 2026-05-05 05:10 | 8.60726 | 106.54819 | 37883 ft | 517 kts | 211° |
| 2026-05-05 05:10 | 8.54583 | 106.51033 | 37885 ft | 518 kts | 211° |
| 2026-05-05 05:11 | 8.48485 | 106.47255 | 37893 ft | 518 kts | 211° |
| 2026-05-05 05:11 | 8.42327 | 106.43433 | 37882 ft | 520 kts | 211° |
| 2026-05-05 05:12 | 8.36156 | 106.39602 | 37882 ft | 521 kts | 211° |
| 2026-05-05 05:12 | 8.29968 | 106.35765 | 37885 ft | 522 kts | 211° |
| 2026-05-05 05:13 | 8.23811 | 106.31951 | 37878 ft | 523 kts | 211° |
| 2026-05-05 05:13 | 8.17621 | 106.28116 | 37873 ft | 523 kts | 211° |
| 2026-05-05 05:14 | 8.11425 | 106.24279 | 37877 ft | 522 kts | 211° |
| 2026-05-05 05:14 | 8.05231 | 106.20445 | 37873 ft | 522 kts | 211° |
| 2026-05-05 05:15 | 7.99048 | 106.16618 | 37878 ft | 521 kts | 210° |
| 2026-05-05 05:15 | 7.92925 | 106.12831 | 37875 ft | 520 kts | 210° |
| 2026-05-05 05:16 | 7.86766 | 106.09022 | 37879 ft | 519 kts | 210° |
| 2026-05-05 05:16 | 7.80616 | 106.05221 | 37874 ft | 518 kts | 210° |
| 2026-05-05 05:17 | 7.74473 | 106.01425 | 37877 ft | 518 kts | 210° |
| 2026-05-05 05:17 | 7.68375 | 105.97658 | 37870 ft | 517 kts | 211° |
| 2026-05-05 05:18 | 7.62269 | 105.93887 | 37868 ft | 517 kts | 210° |
| 2026-05-05 05:18 | 7.56130 | 105.90097 | 37873 ft | 517 kts | 211° |
| 2026-05-05 05:19 | 7.49987 | 105.86306 | 37876 ft | 518 kts | 211° |
| 2026-05-05 05:19 | 7.43881 | 105.82539 | 37870 ft | 518 kts | 210° |
| 2026-05-05 05:20 | 7.37729 | 105.78745 | 37872 ft | 518 kts | 210° |
| 2026-05-05 05:20 | 7.31578 | 105.74953 | 37884 ft | 519 kts | 210° |
| 2026-05-05 05:21 | 7.25421 | 105.71158 | 37875 ft | 519 kts | 210° |
| 2026-05-05 05:21 | 7.19264 | 105.67365 | 37873 ft | 519 kts | 210° |
| 2026-05-05 05:22 | 7.13149 | 105.63598 | 37871 ft | 519 kts | 210° |
| 2026-05-05 05:22 | 7.06994 | 105.59807 | 37871 ft | 518 kts | 210° |
| 2026-05-05 05:23 | 7.00838 | 105.56019 | 37869 ft | 518 kts | 210° |
| 2026-05-05 05:23 | 6.94489 | 105.52603 | 37879 ft | 517 kts | 205° |
| 2026-05-05 05:24 | 6.88095 | 105.49396 | 37868 ft | 517 kts | 205° |
| 2026-05-05 05:24 | 6.81653 | 105.46161 | 37869 ft | 517 kts | 205° |
| 2026-05-05 05:25 | 6.75224 | 105.42902 | 37869 ft | 517 kts | 205° |
| 2026-05-05 05:25 | 6.68800 | 105.39633 | 37868 ft | 517 kts | 205° |
| 2026-05-05 05:26 | 6.62426 | 105.36389 | 37866 ft | 517 kts | 205° |
| 2026-05-05 05:26 | 6.56003 | 105.33123 | 37871 ft | 517 kts | 205° |
| 2026-05-05 05:27 | 6.49584 | 105.29861 | 37868 ft | 517 kts | 205° |
| 2026-05-05 05:27 | 6.39964 | 105.24975 | 37868 ft | 516 kts | 205° |
| 2026-05-05 05:28 | 6.33596 | 105.21741 | 37868 ft | 516 kts | 205° |
| 2026-05-05 05:28 | 6.27187 | 105.18488 | 37868 ft | 516 kts | 205° |
| 2026-05-05 05:29 | 6.20787 | 105.15240 | 37868 ft | 516 kts | 205° |
| 2026-05-05 05:29 | 6.14378 | 105.11988 | 37867 ft | 516 kts | 205° |
| 2026-05-05 05:30 | 6.08011 | 105.08759 | 37870 ft | 516 kts | 205° |
| 2026-05-05 05:30 | 6.01600 | 105.05508 | 37870 ft | 516 kts | 205° |
| 2026-05-05 05:31 | 5.95189 | 105.02258 | 37866 ft | 516 kts | 205° |
| 2026-05-05 05:31 | 5.88775 | 104.99007 | 37867 ft | 516 kts | 205° |
| 2026-05-05 05:32 | 5.82408 | 104.95781 | 37867 ft | 516 kts | 205° |
| 2026-05-05 05:32 | 5.75992 | 104.92531 | 37872 ft | 516 kts | 205° |
| 2026-05-05 05:33 | 5.69574 | 104.89281 | 37865 ft | 517 kts | 205° |
| 2026-05-05 05:33 | 5.63155 | 104.86031 | 37866 ft | 517 kts | 205° |
| 2026-05-05 05:34 | 5.56776 | 104.82802 | 37862 ft | 517 kts | 205° |
| 2026-05-05 05:34 | 5.50353 | 104.79552 | 37870 ft | 517 kts | 205° |
| 2026-05-05 05:35 | 5.43937 | 104.76306 | 37865 ft | 517 kts | 205° |
| 2026-05-05 05:35 | 5.37515 | 104.73057 | 37870 ft | 517 kts | 205° |
| 2026-05-05 05:36 | 5.31135 | 104.69831 | 37866 ft | 517 kts | 205° |
| 2026-05-05 05:36 | 5.24713 | 104.66584 | 37865 ft | 517 kts | 205° |
| 2026-05-05 05:37 | 5.18293 | 104.63339 | 37862 ft | 516 kts | 205° |
| 2026-05-05 05:37 | 5.11876 | 104.60096 | 37870 ft | 516 kts | 205° |
| 2026-05-05 05:38 | 5.05504 | 104.56876 | 37860 ft | 516 kts | 205° |
| 2026-05-05 05:38 | 4.99098 | 104.53639 | 37862 ft | 516 kts | 205° |
| 2026-05-05 05:39 | 4.92685 | 104.50401 | 37862 ft | 515 kts | 205° |
| 2026-05-05 05:39 | 4.85908 | 104.48279 | 37869 ft | 510 kts | 186° |
| 2026-05-05 05:40 | 4.78913 | 104.48330 | 37869 ft | 506 kts | 171° |
| 2026-05-05 05:40 | 4.71936 | 104.49311 | 37863 ft | 507 kts | 170° |
| 2026-05-05 05:41 | 4.64948 | 104.50272 | 37869 ft | 507 kts | 171° |
| 2026-05-05 05:41 | 4.57950 | 104.51170 | 37865 ft | 508 kts | 171° |
| 2026-05-05 05:42 | 4.50935 | 104.52048 | 37861 ft | 508 kts | 171° |
| 2026-05-05 05:42 | 4.43966 | 104.52923 | 37866 ft | 508 kts | 171° |
| 2026-05-05 05:43 | 4.36948 | 104.53808 | 37860 ft | 508 kts | 171° |
| 2026-05-05 05:43 | 4.29928 | 104.54694 | 37864 ft | 508 kts | 171° |
| 2026-05-05 05:44 | 4.22918 | 104.55578 | 37866 ft | 508 kts | 171° |
| 2026-05-05 05:44 | 4.15936 | 104.56374 | 37863 ft | 508 kts | 173° |
| 2026-05-05 05:45 | 4.08891 | 104.57030 | 37864 ft | 508 kts | 173° |
| 2026-05-05 05:45 | 4.01848 | 104.57691 | 37865 ft | 508 kts | 173° |
| 2026-05-05 05:46 | 3.94810 | 104.58376 | 37865 ft | 508 kts | 173° |
| 2026-05-05 05:46 | 3.87820 | 104.59064 | 37862 ft | 508 kts | 173° |
| 2026-05-05 05:47 | 3.80791 | 104.59752 | 37860 ft | 508 kts | 173° |
| 2026-05-05 05:47 | 3.73756 | 104.60441 | 37860 ft | 508 kts | 173° |
| 2026-05-05 05:48 | 3.66722 | 104.61131 | 37861 ft | 508 kts | 173° |
| 2026-05-05 05:48 | 3.59689 | 104.61822 | 37859 ft | 508 kts | 173° |
| 2026-05-05 05:49 | 3.52806 | 104.62496 | 37845 ft | 490 kts | 173° |
| 2026-05-05 05:49 | 3.46096 | 104.63154 | 37852 ft | 482 kts | 173° |
| 2026-05-05 05:50 | 3.39409 | 104.63812 | 37863 ft | 484 kts | 173° |
| 2026-05-05 05:50 | 3.32697 | 104.64471 | 37866 ft | 485 kts | 173° |
| 2026-05-05 05:51 | 3.25969 | 104.65132 | 37827 ft | 487 kts | 173° |
| 2026-05-05 05:51 | 3.22607 | 104.65462 | 37115 ft | 497 kts | 173° |
| 2026-05-05 05:51 | 3.19167 | 104.65799 | 36411 ft | 496 kts | 173° |
| 2026-05-05 05:52 | 3.15736 | 104.66135 | 35651 ft | 495 kts | 173° |
| 2026-05-05 05:52 | 3.12302 | 104.66472 | 34764 ft | 497 kts | 173° |
| 2026-05-05 05:52 | 3.08855 | 104.66768 | 33834 ft | 496 kts | 178° |
| 2026-05-05 05:52 | 3.05469 | 104.66369 | 32787 ft | 487 kts | 196° |
| 2026-05-05 05:53 | 3.02386 | 104.65072 | 31881 ft | 477 kts | 209° |
| 2026-05-05 05:53 | 2.99720 | 104.63162 | 30937 ft | 471 kts | 223° |
| 2026-05-05 05:53 | 2.97531 | 104.60813 | 30204 ft | 464 kts | 227° |
| 2026-05-05 05:53 | 2.95379 | 104.58419 | 29496 ft | 463 kts | 226° |
| 2026-05-05 05:54 | 2.93187 | 104.56013 | 28821 ft | 474 kts | 226° |
| 2026-05-05 05:54 | 2.90921 | 104.53555 | 28152 ft | 487 kts | 226° |
| 2026-05-05 05:54 | 2.88599 | 104.51055 | 27482 ft | 491 kts | 226° |
| 2026-05-05 05:54 | 2.86292 | 104.48584 | 26804 ft | 479 kts | 226° |
| 2026-05-05 05:55 | 2.84053 | 104.46190 | 26157 ft | 463 kts | 226° |
| 2026-05-05 05:55 | 2.81889 | 104.43877 | 25548 ft | 448 kts | 226° |
| 2026-05-05 05:55 | 2.79815 | 104.41663 | 24952 ft | 437 kts | 226° |
| 2026-05-05 05:55 | 2.77727 | 104.39435 | 24375 ft | 444 kts | 226° |
| 2026-05-05 05:56 | 2.75583 | 104.37147 | 23773 ft | 459 kts | 226° |
| 2026-05-05 05:56 | 2.73372 | 104.34788 | 23072 ft | 468 kts | 226° |
| 2026-05-05 05:56 | 2.71147 | 104.32411 | 22360 ft | 467 kts | 226° |
| 2026-05-05 05:56 | 2.68936 | 104.30048 | 21716 ft | 463 kts | 226° |
| 2026-05-05 05:57 | 2.66746 | 104.27707 | 21092 ft | 459 kts | 226° |
| 2026-05-05 05:57 | 2.64575 | 104.25386 | 20463 ft | 455 kts | 226° |
| 2026-05-05 05:57 | 2.62426 | 104.23090 | 20063 ft | 446 kts | 226° |
| 2026-05-05 05:57 | 2.60365 | 104.20888 | 19872 ft | 433 kts | 226° |
| 2026-05-05 05:58 | 2.58337 | 104.18721 | 19681 ft | 421 kts | 226° |
| 2026-05-05 05:58 | 2.56365 | 104.16616 | 19500 ft | 409 kts | 226° |
| 2026-05-05 05:58 | 2.54447 | 104.14567 | 19344 ft | 398 kts | 226° |
| 2026-05-05 05:58 | 2.52572 | 104.12589 | 19165 ft | 383 kts | 222° |
| 2026-05-05 05:59 | 2.50418 | 104.11142 | 18999 ft | 368 kts | 201° |
| 2026-05-05 05:59 | 2.47984 | 104.10473 | 18614 ft | 362 kts | 184° |
| 2026-05-05 05:59 | 2.45487 | 104.10390 | 18244 ft | 357 kts | 178° |
| 2026-05-05 05:59 | 2.43006 | 104.10404 | 17775 ft | 353 kts | 178° |
| 2026-05-05 06:00 | 2.40626 | 104.10430 | 17359 ft | 340 kts | 177° |
| 2026-05-05 06:00 | 2.38307 | 104.10453 | 16967 ft | 327 kts | 178° |
| 2026-05-05 06:00 | 2.36076 | 104.10469 | 16598 ft | 315 kts | 178° |
| 2026-05-05 06:00 | 2.33921 | 104.10480 | 16254 ft | 307 kts | 178° |
| 2026-05-05 06:01 | 2.31777 | 104.10488 | 15933 ft | 310 kts | 178° |
| 2026-05-05 06:01 | 2.29583 | 104.10494 | 15584 ft | 320 kts | 178° |
| 2026-05-05 06:01 | 2.27332 | 104.10499 | 15204 ft | 325 kts | 178° |
| 2026-05-05 06:01 | 2.25062 | 104.10500 | 14834 ft | 326 kts | 178° |
| 2026-05-05 06:02 | 2.22829 | 104.10500 | 14461 ft | 326 kts | 178° |
| 2026-05-05 06:02 | 2.20591 | 104.10500 | 14079 ft | 316 kts | 178° |
| 2026-05-05 06:02 | 2.18423 | 104.10499 | 13733 ft | 306 kts | 178° |
| 2026-05-05 06:02 | 2.16325 | 104.10498 | 13339 ft | 297 kts | 178° |
| 2026-05-05 06:03 | 2.14286 | 104.10498 | 12981 ft | 289 kts | 178° |
| 2026-05-05 06:03 | 2.12284 | 104.10499 | 12651 ft | 287 kts | 179° |
| 2026-05-05 06:03 | 2.10263 | 104.10500 | 12335 ft | 295 kts | 179° |
| 2026-05-05 06:03 | 2.08171 | 104.10501 | 12010 ft | 305 kts | 179° |
| 2026-05-05 06:04 | 2.06090 | 104.10500 | 11836 ft | 298 kts | 179° |
| 2026-05-05 06:04 | 2.04071 | 104.10499 | 11678 ft | 283 kts | 179° |
| 2026-05-05 06:04 | 2.02159 | 104.10499 | 11539 ft | 266 kts | 179° |
| 2026-05-05 06:04 | 2.00366 | 104.10498 | 11416 ft | 249 kts | 179° |
| 2026-05-05 06:05 | 1.98631 | 104.10498 | 11349 ft | 255 kts | 179° |
| 2026-05-05 06:05 | 1.96812 | 104.10456 | 11108 ft | 265 kts | 181° |
| 2026-05-05 06:05 | 1.94964 | 104.10388 | 10809 ft | 265 kts | 181° |
| 2026-05-05 06:05 | 1.93120 | 104.10316 | 10497 ft | 265 kts | 181° |
| 2026-05-05 06:06 | 1.91303 | 104.10246 | 10191 ft | 265 kts | 181° |
| 2026-05-05 06:06 | 1.89460 | 104.10178 | 9874 ft | 265 kts | 182° |
| 2026-05-05 06:06 | 1.87613 | 104.10110 | 9531 ft | 266 kts | 182° |
| 2026-05-05 06:06 | 1.85771 | 104.10042 | 9189 ft | 265 kts | 182° |
| 2026-05-05 06:07 | 1.83930 | 104.09976 | 8853 ft | 264 kts | 182° |
| 2026-05-05 06:07 | 1.82100 | 104.09910 | 8524 ft | 263 kts | 182° |
| 2026-05-05 06:07 | 1.80278 | 104.09845 | 8207 ft | 261 kts | 182° |
| 2026-05-05 06:07 | 1.78464 | 104.09780 | 7893 ft | 260 kts | 182° |
| 2026-05-05 06:08 | 1.76658 | 104.09716 | 7580 ft | 259 kts | 182° |
| 2026-05-05 06:08 | 1.74858 | 104.09652 | 7266 ft | 258 kts | 182° |
| 2026-05-05 06:08 | 1.73088 | 104.09589 | 6954 ft | 258 kts | 182° |
| 2026-05-05 06:08 | 1.71298 | 104.09525 | 6648 ft | 257 kts | 182° |
| 2026-05-05 06:09 | 1.69514 | 104.09462 | 6332 ft | 257 kts | 182° |
| 2026-05-05 06:09 | 1.67749 | 104.09399 | 5986 ft | 250 kts | 182° |
| 2026-05-05 06:09 | 1.66045 | 104.09338 | 5668 ft | 241 kts | 182° |
| 2026-05-05 06:09 | 1.64388 | 104.09279 | 5372 ft | 237 kts | 183° |
| 2026-05-05 06:10 | 1.62723 | 104.09218 | 5088 ft | 242 kts | 185° |
| 2026-05-05 06:10 | 1.61086 | 104.08844 | 4768 ft | 242 kts | 202° |
| 2026-05-05 06:10 | 1.59535 | 104.08191 | 4454 ft | 241 kts | 204° |
| 2026-05-05 06:10 | 1.57999 | 104.07541 | 4142 ft | 237 kts | 204° |
| 2026-05-05 06:11 | 1.56508 | 104.06910 | 3824 ft | 228 kts | 204° |
| 2026-05-05 06:11 | 1.55111 | 104.06316 | 3595 ft | 216 kts | 204° |
| 2026-05-05 06:11 | 1.53749 | 104.05739 | 3296 ft | 209 kts | 204° |
| 2026-05-05 06:11 | 1.52427 | 104.05178 | 3026 ft | 204 kts | 204° |
| 2026-05-05 06:12 | 1.51140 | 104.04631 | 2739 ft | 198 kts | 204° |
| 2026-05-05 06:12 | 1.49902 | 104.04104 | 2496 ft | 188 kts | 203° |
| 2026-05-05 06:12 | 1.48748 | 104.03614 | 2293 ft | 173 kts | 203° |
| 2026-05-05 06:12 | 1.47663 | 104.03154 | 2057 ft | 168 kts | 204° |
| 2026-05-05 06:13 | 1.46611 | 104.02708 | 1835 ft | 158 kts | 204° |
| 2026-05-05 06:13 | 1.45639 | 104.02295 | 1655 ft | 151 kts | 203° |
| 2026-05-05 06:13 | 1.44665 | 104.01882 | 1472 ft | 154 kts | 203° |
| 2026-05-05 06:13 | 1.43680 | 104.01464 | 1271 ft | 153 kts | 203° |
| 2026-05-05 06:14 | 1.42705 | 104.01050 | 1057 ft | 152 kts | 203° |
| 2026-05-05 06:14 | 1.41733 | 104.00637 | 881 ft | 152 kts | 203° |
| 2026-05-05 06:14 | 1.40759 | 104.00225 | 699 ft | 152 kts | 203° |
| 2026-05-05 06:14 | 1.39785 | 103.99811 | 503 ft | 151 kts | 202° |
| 2026-05-05 06:15 | 1.38826 | 103.99403 | 314 ft | 150 kts | 202° |
| 2026-05-05 06:15 | 1.37885 | 103.99004 | 137 ft | 149 kts | 202° |
| 2026-05-05 06:15 | 1.36939 | 103.98605 | 29 ft | 139 kts | 202° |
| 2026-05-05 06:15 | 1.36321 | 103.98352 | 29 ft | 47 kts | 203° |
| 2026-05-05 06:16 | 1.36145 | 103.98291 | 29 ft | 20 kts | 191° |
| 2026-05-05 06:16 | 1.36005 | 103.98287 | 29 ft | 20 kts | 174° |
| 2026-05-05 06:16 | 1.35865 | 103.98301 | 29 ft | 20 kts | 174° |
| 2026-05-05 06:16 | 1.35749 | 103.98301 | 29 ft | 15 kts | 193° |
| 2026-05-05 06:17 | 1.35650 | 103.98263 | 29 ft | 15 kts | 203° |
| 2026-05-05 06:17 | 1.35539 | 103.98216 | 29 ft | 21 kts | 202° |
| 2026-05-05 06:17 | 1.35408 | 103.98161 | 29 ft | 16 kts | 203° |
| 2026-05-05 06:17 | 1.35307 | 103.98185 | 29 ft | 16 kts | 152° |
| 2026-05-05 06:18 | 1.35198 | 103.98173 | 29 ft | 16 kts | 201° |
| 2026-05-05 06:18 | 1.35094 | 103.98128 | 29 ft | 16 kts | 203° |
| 2026-05-05 06:18 | 1.35009 | 103.98106 | 29 ft | 6 kts | 161° |
| 2026-05-05 06:18 | 1.34995 | 103.98147 | 29 ft | 7 kts | 100° |
| 2026-05-05 06:19 | 1.34984 | 103.98179 | 29 ft | 0 kts | 112° |